sensor_id;sensor_type;location;lat;lon;timestamp;temperature;humidity
41447;DHT22;27185;52.040;4.490;2023-02-01T00:00:31;9.70;99.90
41447;DHT22;27185;52.040;4.490;2023-02-01T00:03:18;9.60;99.90
41447;DHT22;27185;52.040;4.490;2023-02-01T00:06:04;9.70;99.90
41447;DHT22;27185;52.040;4.490;2023-02-01T00:08:53;9.60;99.90
41447;DHT22;27185;52.040;4.490;2023-02-01T00:11:39;9.60;99.90
41447;DHT22;27185;52.040;4.490;2023-02-01T00:14:25;9.60;99.90
41447;DHT22;27185;52.040;4.490;2023-02-01T00:17:10;9.50;99.90
41447;DHT22;27185;52.040;4.490;2023-02-01T00:19:56;9.60;99.90
41447;DHT22;27185;52.040;4.490;2023-02-01T00:22:41;9.50;99.90
41447;DHT22;27185;52.040;4.490;2023-02-01T00:25:27;9.50;99.90
41447;DHT22;27185;52.040;4.490;2023-02-01T00:28:13;9.50;99.90
41447;DHT22;27185;52.040;4.490;2023-02-01T00:30:59;9.50;99.90
41447;DHT22;27185;52.040;4.490;2023-02-01T00:33:47;9.50;99.90
41447;DHT22;27185;52.040;4.490;2023-02-01T00:36:33;9.50;99.90
41447;DHT22;27185;52.040;4.490;2023-02-01T00:39:19;9.40;99.90
41447;DHT22;27185;52.040;4.490;2023-02-01T00:42:04;9.50;99.90
41447;DHT22;27185;52.040;4.490;2023-02-01T00:44:50;9.50;99.90
41447;DHT22;27185;52.040;4.490;2023-02-01T00:47:35;9.50;99.90
41447;DHT22;27185;52.040;4.490;2023-02-01T00:50:21;9.50;99.90
41447;DHT22;27185;52.040;4.490;2023-02-01T00:53:07;9.40;99.90
41447;DHT22;27185;52.040;4.490;2023-02-01T00:55:53;9.50;99.90
41447;DHT22;27185;52.040;4.490;2023-02-01T00:58:39;9.50;99.90
41447;DHT22;27185;52.040;4.490;2023-02-01T01:01:26;9.50;99.90
41447;DHT22;27185;52.040;4.490;2023-02-01T01:04:12;9.50;99.90
41447;DHT22;27185;52.040;4.490;2023-02-01T01:06:58;9.50;99.90
41447;DHT22;27185;52.040;4.490;2023-02-01T01:09:43;9.50;99.90
41447;DHT22;27185;52.040;4.490;2023-02-01T01:12:29;9.50;99.90
41447;DHT22;27185;52.040;4.490;2023-02-01T01:15:15;9.50;99.90
41447;DHT22;27185;52.040;4.490;2023-02-01T01:18:00;9.50;99.90
41447;DHT22;27185;52.040;4.490;2023-02-01T01:20:47;9.50;99.90
41447;DHT22;27185;52.040;4.490;2023-02-01T01:23:34;9.50;99.90
41447;DHT22;27185;52.040;4.490;2023-02-01T01:26:25;9.60;99.90
41447;DHT22;27185;52.040;4.490;2023-02-01T01:29:11;9.60;99.90
41447;DHT22;27185;52.040;4.490;2023-02-01T01:31:57;9.60;99.90
41447;DHT22;27185;52.040;4.490;2023-02-01T01:34:42;9.50;99.90
41447;DHT22;27185;52.040;4.490;2023-02-01T01:37:28;9.60;99.90
41447;DHT22;27185;52.040;4.490;2023-02-01T01:40:13;9.60;99.90
41447;DHT22;27185;52.040;4.490;2023-02-01T01:42:59;9.50;99.90
41447;DHT22;27185;52.040;4.490;2023-02-01T01:45:45;9.60;99.90
41447;DHT22;27185;52.040;4.490;2023-02-01T01:48:31;9.50;99.90
41447;DHT22;27185;52.040;4.490;2023-02-01T01:51:20;9.50;99.90
41447;DHT22;27185;52.040;4.490;2023-02-01T01:54:20;9.50;99.90
41447;DHT22;27185;52.040;4.490;2023-02-01T01:57:23;9.50;99.90
41447;DHT22;27185;52.040;4.490;2023-02-01T02:00:12;9.50;99.90
41447;DHT22;27185;52.040;4.490;2023-02-01T02:06:49;9.60;99.90
41447;DHT22;27185;52.040;4.490;2023-02-01T02:09:35;9.60;99.90
41447;DHT22;27185;52.040;4.490;2023-02-01T02:12:21;9.60;99.90
41447;DHT22;27185;52.040;4.490;2023-02-01T02:15:08;9.50;99.90
41447;DHT22;27185;52.040;4.490;2023-02-01T02:18:17;9.50;99.90
41447;DHT22;27185;52.040;4.490;2023-02-01T02:21:09;9.60;99.90
41447;DHT22;27185;52.040;4.490;2023-02-01T02:24:06;9.60;99.90
41447;DHT22;27185;52.040;4.490;2023-02-01T02:27:12;9.60;99.90
41447;DHT22;27185;52.040;4.490;2023-02-01T02:30:39;9.60;99.90
41447;DHT22;27185;52.040;4.490;2023-02-01T02:33:36;9.60;99.90
41447;DHT22;27185;52.040;4.490;2023-02-01T02:46:04;9.70;99.90
41447;DHT22;27185;52.040;4.490;2023-02-01T02:49:47;9.70;99.90
41447;DHT22;27185;52.040;4.490;2023-02-01T02:53:07;9.70;99.90
41447;DHT22;27185;52.040;4.490;2023-02-01T02:56:15;9.70;99.90
41447;DHT22;27185;52.040;4.490;2023-02-01T02:59:21;9.70;99.90
41447;DHT22;27185;52.040;4.490;2023-02-01T03:02:28;9.70;99.90
41447;DHT22;27185;52.040;4.490;2023-02-01T03:05:40;9.70;99.90
41447;DHT22;27185;52.040;4.490;2023-02-01T03:08:30;9.70;99.90
41447;DHT22;27185;52.040;4.490;2023-02-01T03:11:16;9.60;99.90
41447;DHT22;27185;52.040;4.490;2023-02-01T03:14:02;9.60;99.90
41447;DHT22;27185;52.040;4.490;2023-02-01T03:16:56;9.60;99.90
41447;DHT22;27185;52.040;4.490;2023-02-01T03:19:45;9.60;99.90
41447;DHT22;27185;52.040;4.490;2023-02-01T03:22:35;9.50;99.90
41447;DHT22;27185;52.040;4.490;2023-02-01T03:25:26;9.50;99.90
41447;DHT22;27185;52.040;4.490;2023-02-01T03:28:13;9.50;99.90
41447;DHT22;27185;52.040;4.490;2023-02-01T03:31:01;9.40;99.90
41447;DHT22;27185;52.040;4.490;2023-02-01T03:33:47;9.40;99.90
41447;DHT22;27185;52.040;4.490;2023-02-01T03:36:44;9.40;99.90
41447;DHT22;27185;52.040;4.490;2023-02-01T03:45:27;9.40;99.90
41447;DHT22;27185;52.040;4.490;2023-02-01T03:48:17;9.40;99.90
41447;DHT22;27185;52.040;4.490;2023-02-01T03:51:04;9.40;99.90
41447;DHT22;27185;52.040;4.490;2023-02-01T03:53:52;9.30;99.90
41447;DHT22;27185;52.040;4.490;2023-02-01T03:56:42;9.30;99.90
41447;DHT22;27185;52.040;4.490;2023-02-01T03:59:29;9.40;99.90
41447;DHT22;27185;52.040;4.490;2023-02-01T04:02:15;9.30;99.90
41447;DHT22;27185;52.040;4.490;2023-02-01T04:05:01;9.30;99.90
41447;DHT22;27185;52.040;4.490;2023-02-01T04:07:47;9.40;99.90
41447;DHT22;27185;52.040;4.490;2023-02-01T04:10:32;9.50;99.90
41447;DHT22;27185;52.040;4.490;2023-02-01T04:13:18;9.50;99.90
41447;DHT22;27185;52.040;4.490;2023-02-01T04:16:04;9.50;99.90
41447;DHT22;27185;52.040;4.490;2023-02-01T04:18:49;9.50;99.90
41447;DHT22;27185;52.040;4.490;2023-02-01T04:21:35;9.50;99.90
41447;DHT22;27185;52.040;4.490;2023-02-01T04:24:21;9.60;99.90
41447;DHT22;27185;52.040;4.490;2023-02-01T04:27:06;9.60;99.90
41447;DHT22;27185;52.040;4.490;2023-02-01T04:29:52;9.70;99.90
41447;DHT22;27185;52.040;4.490;2023-02-01T04:32:38;9.70;99.90
41447;DHT22;27185;52.040;4.490;2023-02-01T04:35:24;9.50;99.90
41447;DHT22;27185;52.040;4.490;2023-02-01T04:38:10;9.60;99.90
41447;DHT22;27185;52.040;4.490;2023-02-01T04:40:55;9.60;99.90
41447;DHT22;27185;52.040;4.490;2023-02-01T04:43:41;9.50;99.90
41447;DHT22;27185;52.040;4.490;2023-02-01T04:46:26;9.50;99.90
41447;DHT22;27185;52.040;4.490;2023-02-01T04:49:13;9.40;99.90
41447;DHT22;27185;52.040;4.490;2023-02-01T04:51:59;9.50;99.90
41447;DHT22;27185;52.040;4.490;2023-02-01T04:54:44;9.30;99.90
41447;DHT22;27185;52.040;4.490;2023-02-01T04:57:30;9.30;99.90
41447;DHT22;27185;52.040;4.490;2023-02-01T05:00:16;9.30;99.90
41447;DHT22;27185;52.040;4.490;2023-02-01T05:03:02;9.20;99.90
41447;DHT22;27185;52.040;4.490;2023-02-01T05:05:48;9.20;99.90
41447;DHT22;27185;52.040;4.490;2023-02-01T05:08:34;9.20;99.90
41447;DHT22;27185;52.040;4.490;2023-02-01T05:11:19;9.20;99.90
41447;DHT22;27185;52.040;4.490;2023-02-01T05:14:23;9.20;99.90
41447;DHT22;27185;52.040;4.490;2023-02-01T05:17:09;9.10;99.90
41447;DHT22;27185;52.040;4.490;2023-02-01T05:19:55;9.10;99.90
41447;DHT22;27185;52.040;4.490;2023-02-01T05:22:41;9.00;99.90
41447;DHT22;27185;52.040;4.490;2023-02-01T05:25:27;9.00;99.90
41447;DHT22;27185;52.040;4.490;2023-02-01T05:28:13;9.00;99.90
41447;DHT22;27185;52.040;4.490;2023-02-01T05:30:58;9.00;99.90
41447;DHT22;27185;52.040;4.490;2023-02-01T05:33:44;8.90;99.90
41447;DHT22;27185;52.040;4.490;2023-02-01T05:36:30;8.90;99.90
41447;DHT22;27185;52.040;4.490;2023-02-01T05:39:15;9.00;99.90
41447;DHT22;27185;52.040;4.490;2023-02-01T05:42:01;9.00;99.90
41447;DHT22;27185;52.040;4.490;2023-02-01T05:44:46;9.10;99.90
41447;DHT22;27185;52.040;4.490;2023-02-01T05:47:32;9.00;99.90
41447;DHT22;27185;52.040;4.490;2023-02-01T05:50:18;9.10;99.90
41447;DHT22;27185;52.040;4.490;2023-02-01T05:53:03;9.10;99.90
41447;DHT22;27185;52.040;4.490;2023-02-01T05:55:49;9.10;99.90
41447;DHT22;27185;52.040;4.490;2023-02-01T05:58:35;9.10;99.90
41447;DHT22;27185;52.040;4.490;2023-02-01T06:01:20;9.10;99.90
41447;DHT22;27185;52.040;4.490;2023-02-01T06:04:06;9.10;99.90
41447;DHT22;27185;52.040;4.490;2023-02-01T06:06:51;9.00;99.90
41447;DHT22;27185;52.040;4.490;2023-02-01T06:09:37;9.00;99.90
41447;DHT22;27185;52.040;4.490;2023-02-01T06:12:23;9.00;99.90
41447;DHT22;27185;52.040;4.490;2023-02-01T06:15:09;9.00;99.90
41447;DHT22;27185;52.040;4.490;2023-02-01T06:17:54;9.00;99.90
41447;DHT22;27185;52.040;4.490;2023-02-01T06:20:40;9.00;99.90
41447;DHT22;27185;52.040;4.490;2023-02-01T06:23:26;9.10;99.90
41447;DHT22;27185;52.040;4.490;2023-02-01T06:26:12;9.10;99.90
41447;DHT22;27185;52.040;4.490;2023-02-01T06:28:57;9.20;99.90
41447;DHT22;27185;52.040;4.490;2023-02-01T06:31:43;9.20;99.90
41447;DHT22;27185;52.040;4.490;2023-02-01T06:34:29;9.20;99.90
41447;DHT22;27185;52.040;4.490;2023-02-01T06:37:14;9.20;99.90
41447;DHT22;27185;52.040;4.490;2023-02-01T06:40:00;9.20;99.90
41447;DHT22;27185;52.040;4.490;2023-02-01T06:42:48;9.20;99.90
41447;DHT22;27185;52.040;4.490;2023-02-01T06:45:34;9.30;99.90
41447;DHT22;27185;52.040;4.490;2023-02-01T06:48:19;9.30;99.90
41447;DHT22;27185;52.040;4.490;2023-02-01T06:51:05;9.30;99.90
41447;DHT22;27185;52.040;4.490;2023-02-01T06:53:51;9.20;99.90
41447;DHT22;27185;52.040;4.490;2023-02-01T06:56:36;9.20;99.90
41447;DHT22;27185;52.040;4.490;2023-02-01T06:59:22;9.30;99.90
41447;DHT22;27185;52.040;4.490;2023-02-01T07:02:11;9.20;99.90
41447;DHT22;27185;52.040;4.490;2023-02-01T07:04:56;9.20;99.90
41447;DHT22;27185;52.040;4.490;2023-02-01T07:07:42;9.20;99.90
41447;DHT22;27185;52.040;4.490;2023-02-01T07:10:28;9.20;99.90
41447;DHT22;27185;52.040;4.490;2023-02-01T07:13:14;9.20;99.90
41447;DHT22;27185;52.040;4.490;2023-02-01T07:16:04;9.20;99.90
41447;DHT22;27185;52.040;4.490;2023-02-01T07:18:51;9.30;99.90
41447;DHT22;27185;52.040;4.490;2023-02-01T07:21:37;9.20;99.90
41447;DHT22;27185;52.040;4.490;2023-02-01T07:24:22;9.20;99.90
41447;DHT22;27185;52.040;4.490;2023-02-01T07:27:08;9.20;99.90
41447;DHT22;27185;52.040;4.490;2023-02-01T07:29:54;9.20;99.90
41447;DHT22;27185;52.040;4.490;2023-02-01T07:32:40;9.30;99.90
41447;DHT22;27185;52.040;4.490;2023-02-01T07:35:27;9.30;99.90
41447;DHT22;27185;52.040;4.490;2023-02-01T07:38:13;9.40;99.90
41447;DHT22;27185;52.040;4.490;2023-02-01T07:41:00;9.30;99.90
41447;DHT22;27185;52.040;4.490;2023-02-01T07:43:46;9.30;99.90
41447;DHT22;27185;52.040;4.490;2023-02-01T07:46:32;9.30;99.90
41447;DHT22;27185;52.040;4.490;2023-02-01T07:49:17;9.30;99.90
41447;DHT22;27185;52.040;4.490;2023-02-01T07:52:03;9.30;99.90
41447;DHT22;27185;52.040;4.490;2023-02-01T07:54:49;9.30;99.90
41447;DHT22;27185;52.040;4.490;2023-02-01T07:57:34;9.30;99.90
41447;DHT22;27185;52.040;4.490;2023-02-01T08:00:20;9.20;99.90
41447;DHT22;27185;52.040;4.490;2023-02-01T08:03:24;9.20;99.90
41447;DHT22;27185;52.040;4.490;2023-02-01T08:06:09;9.20;99.90
41447;DHT22;27185;52.040;4.490;2023-02-01T08:08:55;9.20;99.90
41447;DHT22;27185;52.040;4.490;2023-02-01T08:11:41;9.20;99.90
41447;DHT22;27185;52.040;4.490;2023-02-01T08:14:26;9.20;99.90
41447;DHT22;27185;52.040;4.490;2023-02-01T08:17:12;9.30;99.90
41447;DHT22;27185;52.040;4.490;2023-02-01T08:19:57;9.20;99.90
41447;DHT22;27185;52.040;4.490;2023-02-01T08:22:43;9.20;99.90
41447;DHT22;27185;52.040;4.490;2023-02-01T08:25:29;9.20;99.90
41447;DHT22;27185;52.040;4.490;2023-02-01T08:28:15;9.20;99.90
41447;DHT22;27185;52.040;4.490;2023-02-01T08:31:14;9.30;99.90
41447;DHT22;27185;52.040;4.490;2023-02-01T08:34:01;9.30;99.90
41447;DHT22;27185;52.040;4.490;2023-02-01T08:36:49;9.30;99.90
41447;DHT22;27185;52.040;4.490;2023-02-01T08:39:37;9.40;99.90
41447;DHT22;27185;52.040;4.490;2023-02-01T08:42:22;9.30;99.90
41447;DHT22;27185;52.040;4.490;2023-02-01T08:45:28;9.40;99.90
41447;DHT22;27185;52.040;4.490;2023-02-01T08:48:17;9.50;99.90
41447;DHT22;27185;52.040;4.490;2023-02-01T08:51:05;9.50;99.90
41447;DHT22;27185;52.040;4.490;2023-02-01T08:53:51;9.50;99.90
41447;DHT22;27185;52.040;4.490;2023-02-01T08:56:36;9.60;99.90
41447;DHT22;27185;52.040;4.490;2023-02-01T08:59:22;9.60;99.90
41447;DHT22;27185;52.040;4.490;2023-02-01T09:02:13;9.60;99.90
41447;DHT22;27185;52.040;4.490;2023-02-01T09:04:59;9.60;99.90
41447;DHT22;27185;52.040;4.490;2023-02-01T09:07:44;9.70;99.90
41447;DHT22;27185;52.040;4.490;2023-02-01T09:10:30;9.70;99.90
41447;DHT22;27185;52.040;4.490;2023-02-01T09:13:16;9.80;99.90
41447;DHT22;27185;52.040;4.490;2023-02-01T09:16:02;9.80;99.90
41447;DHT22;27185;52.040;4.490;2023-02-01T09:18:47;9.90;99.90
41447;DHT22;27185;52.040;4.490;2023-02-01T09:21:33;9.90;99.90
41447;DHT22;27185;52.040;4.490;2023-02-01T09:24:19;9.90;99.90
41447;DHT22;27185;52.040;4.490;2023-02-01T09:27:04;10.00;99.90
41447;DHT22;27185;52.040;4.490;2023-02-01T09:29:50;10.00;99.90
41447;DHT22;27185;52.040;4.490;2023-02-01T09:32:37;10.10;99.90
41447;DHT22;27185;52.040;4.490;2023-02-01T09:35:23;10.00;99.90
41447;DHT22;27185;52.040;4.490;2023-02-01T09:38:08;10.00;99.90
41447;DHT22;27185;52.040;4.490;2023-02-01T09:40:55;10.10;99.90
41447;DHT22;27185;52.040;4.490;2023-02-01T09:43:55;9.90;99.90
41447;DHT22;27185;52.040;4.490;2023-02-01T09:46:45;10.00;99.90
41447;DHT22;27185;52.040;4.490;2023-02-01T09:49:38;10.10;99.90
41447;DHT22;27185;52.040;4.490;2023-02-01T09:52:32;10.10;99.90
41447;DHT22;27185;52.040;4.490;2023-02-01T09:55:35;10.10;99.90
41447;DHT22;27185;52.040;4.490;2023-02-01T09:58:37;10.10;99.90
41447;DHT22;27185;52.040;4.490;2023-02-01T10:01:24;10.00;99.90
41447;DHT22;27185;52.040;4.490;2023-02-01T10:04:13;9.90;99.90
41447;DHT22;27185;52.040;4.490;2023-02-01T10:07:06;10.00;99.90
41447;DHT22;27185;52.040;4.490;2023-02-01T10:16:23;10.00;99.90
41447;DHT22;27185;52.040;4.490;2023-02-01T10:22:09;10.10;99.90
41447;DHT22;27185;52.040;4.490;2023-02-01T10:27:52;10.10;99.90
41447;DHT22;27185;52.040;4.490;2023-02-01T10:30:43;10.00;99.90
41447;DHT22;27185;52.040;4.490;2023-02-01T10:33:50;10.00;99.90
41447;DHT22;27185;52.040;4.490;2023-02-01T10:37:17;10.00;99.90
41447;DHT22;27185;52.040;4.490;2023-02-01T10:40:23;10.20;99.90
41447;DHT22;27185;52.040;4.490;2023-02-01T10:43:10;10.20;99.90
41447;DHT22;27185;52.040;4.490;2023-02-01T10:45:56;10.20;99.90
41447;DHT22;27185;52.040;4.490;2023-02-01T10:48:42;10.30;99.90
41447;DHT22;27185;52.040;4.490;2023-02-01T10:54:37;10.30;99.90
41447;DHT22;27185;52.040;4.490;2023-02-01T10:57:25;10.30;99.90
41447;DHT22;27185;52.040;4.490;2023-02-01T11:00:20;10.40;99.90
41447;DHT22;27185;52.040;4.490;2023-02-01T11:03:40;10.40;99.90
41447;DHT22;27185;52.040;4.490;2023-02-01T11:06:46;10.40;99.90
41447;DHT22;27185;52.040;4.490;2023-02-01T11:09:38;10.50;99.90
41447;DHT22;27185;52.040;4.490;2023-02-01T11:12:32;10.40;99.90
41447;DHT22;27185;52.040;4.490;2023-02-01T11:15:20;10.40;99.90
41447;DHT22;27185;52.040;4.490;2023-02-01T11:18:20;10.50;99.90
41447;DHT22;27185;52.040;4.490;2023-02-01T11:21:10;10.50;99.90
41447;DHT22;27185;52.040;4.490;2023-02-01T11:24:01;10.60;99.90
41447;DHT22;27185;52.040;4.490;2023-02-01T11:26:47;10.70;99.90
41447;DHT22;27185;52.040;4.490;2023-02-01T11:29:38;10.60;99.90
41447;DHT22;27185;52.040;4.490;2023-02-01T11:32:26;10.60;99.90
41447;DHT22;27185;52.040;4.490;2023-02-01T11:35:18;10.60;99.90
41447;DHT22;27185;52.040;4.490;2023-02-01T11:38:27;10.60;99.90
41447;DHT22;27185;52.040;4.490;2023-02-01T11:41:25;10.60;99.90
41447;DHT22;27185;52.040;4.490;2023-02-01T11:44:25;10.60;99.90
41447;DHT22;27185;52.040;4.490;2023-02-01T11:47:44;10.70;99.90
41447;DHT22;27185;52.040;4.490;2023-02-01T11:50:50;10.70;99.90
41447;DHT22;27185;52.040;4.490;2023-02-01T12:08:46;10.60;99.90
41447;DHT22;27185;52.040;4.490;2023-02-01T12:23:36;10.50;99.90
41447;DHT22;27185;52.040;4.490;2023-02-01T12:30:44;10.70;99.90
41447;DHT22;27185;52.040;4.490;2023-02-01T12:33:17;10.60;99.90
41447;DHT22;27185;52.040;4.490;2023-02-01T12:36:16;10.70;99.90
41447;DHT22;27185;52.040;4.490;2023-02-01T12:39:17;10.80;99.90
41447;DHT22;27185;52.040;4.490;2023-02-01T12:42:27;10.80;99.90
41447;DHT22;27185;52.040;4.490;2023-02-01T12:45:40;10.80;99.90
41447;DHT22;27185;52.040;4.490;2023-02-01T12:51:21;10.80;99.90
41447;DHT22;27185;52.040;4.490;2023-02-01T12:57:04;10.70;99.90
41447;DHT22;27185;52.040;4.490;2023-02-01T13:03:36;10.80;99.90
41447;DHT22;27185;52.040;4.490;2023-02-01T13:06:43;10.80;99.90
41447;DHT22;27185;52.040;4.490;2023-02-01T13:09:49;10.80;99.90
41447;DHT22;27185;52.040;4.490;2023-02-01T13:12:42;10.70;99.90
41447;DHT22;27185;52.040;4.490;2023-02-01T13:15:31;10.70;99.90
41447;DHT22;27185;52.040;4.490;2023-02-01T13:18:20;10.70;99.90
41447;DHT22;27185;52.040;4.490;2023-02-01T13:21:10;10.80;99.90
41447;DHT22;27185;52.040;4.490;2023-02-01T13:23:58;10.80;99.90
41447;DHT22;27185;52.040;4.490;2023-02-01T13:26:45;10.90;99.90
41447;DHT22;27185;52.040;4.490;2023-02-01T13:29:33;10.80;99.90
41447;DHT22;27185;52.040;4.490;2023-02-01T13:32:34;10.80;99.90
41447;DHT22;27185;52.040;4.490;2023-02-01T13:42:47;10.80;99.90
41447;DHT22;27185;52.040;4.490;2023-02-01T13:45:36;10.70;99.90
41447;DHT22;27185;52.040;4.490;2023-02-01T13:48:57;10.70;99.90
41447;DHT22;27185;52.040;4.490;2023-02-01T13:51:43;10.70;99.90
41447;DHT22;27185;52.040;4.490;2023-02-01T13:54:40;10.80;99.90
41447;DHT22;27185;52.040;4.490;2023-02-01T13:57:40;10.80;99.90
41447;DHT22;27185;52.040;4.490;2023-02-01T14:00:34;10.80;99.90
41447;DHT22;27185;52.040;4.490;2023-02-01T14:03:22;10.70;99.90
41447;DHT22;27185;52.040;4.490;2023-02-01T14:06:17;10.80;99.90
41447;DHT22;27185;52.040;4.490;2023-02-01T14:11:55;10.80;99.90
41447;DHT22;27185;52.040;4.490;2023-02-01T14:14:44;10.80;99.90
41447;DHT22;27185;52.040;4.490;2023-02-01T14:17:32;10.80;99.90
41447;DHT22;27185;52.040;4.490;2023-02-01T14:20:40;10.80;99.90
41447;DHT22;27185;52.040;4.490;2023-02-01T14:23:28;10.90;99.90
41447;DHT22;27185;52.040;4.490;2023-02-01T14:26:25;10.90;99.90
41447;DHT22;27185;52.040;4.490;2023-02-01T14:34:52;10.90;99.90
41447;DHT22;27185;52.040;4.490;2023-02-01T14:37:39;10.80;99.90
41447;DHT22;27185;52.040;4.490;2023-02-01T14:40:27;10.80;99.90
41447;DHT22;27185;52.040;4.490;2023-02-01T14:43:13;10.80;99.90
41447;DHT22;27185;52.040;4.490;2023-02-01T14:45:59;10.80;99.90
41447;DHT22;27185;52.040;4.490;2023-02-01T14:48:45;10.90;99.90
41447;DHT22;27185;52.040;4.490;2023-02-01T14:51:32;10.90;99.90
41447;DHT22;27185;52.040;4.490;2023-02-01T14:54:18;10.90;99.90
41447;DHT22;27185;52.040;4.490;2023-02-01T14:57:04;10.90;99.90
41447;DHT22;27185;52.040;4.490;2023-02-01T15:00:07;10.90;99.90
41447;DHT22;27185;52.040;4.490;2023-02-01T15:02:56;10.90;99.90
41447;DHT22;27185;52.040;4.490;2023-02-01T15:05:55;10.90;99.90
41447;DHT22;27185;52.040;4.490;2023-02-01T15:08:41;10.90;99.90
41447;DHT22;27185;52.040;4.490;2023-02-01T15:11:27;10.90;99.90
41447;DHT22;27185;52.040;4.490;2023-02-01T15:14:14;11.00;99.90
41447;DHT22;27185;52.040;4.490;2023-02-01T15:16:59;11.00;99.90
41447;DHT22;27185;52.040;4.490;2023-02-01T15:20:03;11.00;99.90
41447;DHT22;27185;52.040;4.490;2023-02-01T15:23:05;11.00;99.90
41447;DHT22;27185;52.040;4.490;2023-02-01T15:25:51;11.00;99.90
41447;DHT22;27185;52.040;4.490;2023-02-01T15:28:36;11.00;99.90
41447;DHT22;27185;52.040;4.490;2023-02-01T15:31:33;11.00;99.90
41447;DHT22;27185;52.040;4.490;2023-02-01T15:34:20;11.00;99.90
41447;DHT22;27185;52.040;4.490;2023-02-01T15:37:06;11.00;99.90
41447;DHT22;27185;52.040;4.490;2023-02-01T15:42:55;11.00;99.90
41447;DHT22;27185;52.040;4.490;2023-02-01T15:45:41;11.00;99.90
41447;DHT22;27185;52.040;4.490;2023-02-01T15:48:36;10.90;99.90
41447;DHT22;27185;52.040;4.490;2023-02-01T15:51:24;10.90;99.90
41447;DHT22;27185;52.040;4.490;2023-02-01T15:54:18;10.90;99.90
41447;DHT22;27185;52.040;4.490;2023-02-01T15:57:05;11.00;99.90
41447;DHT22;27185;52.040;4.490;2023-02-01T15:59:52;11.00;99.90
41447;DHT22;27185;52.040;4.490;2023-02-01T16:02:55;11.00;99.90
41447;DHT22;27185;52.040;4.490;2023-02-01T16:05:43;11.00;99.90
41447;DHT22;27185;52.040;4.490;2023-02-01T16:08:30;11.10;99.90
41447;DHT22;27185;52.040;4.490;2023-02-01T16:11:32;11.10;99.90
41447;DHT22;27185;52.040;4.490;2023-02-01T16:14:18;11.10;99.90
41447;DHT22;27185;52.040;4.490;2023-02-01T16:17:03;11.20;99.90
41447;DHT22;27185;52.040;4.490;2023-02-01T16:19:50;11.10;99.90
41447;DHT22;27185;52.040;4.490;2023-02-01T16:22:35;11.10;99.90
41447;DHT22;27185;52.040;4.490;2023-02-01T16:25:21;11.20;99.90
41447;DHT22;27185;52.040;4.490;2023-02-01T16:28:06;11.20;99.90
41447;DHT22;27185;52.040;4.490;2023-02-01T16:30:52;11.20;99.90
41447;DHT22;27185;52.040;4.490;2023-02-01T16:33:38;11.10;99.90
41447;DHT22;27185;52.040;4.490;2023-02-01T16:36:24;11.20;99.90
41447;DHT22;27185;52.040;4.490;2023-02-01T16:39:11;11.30;99.90
41447;DHT22;27185;52.040;4.490;2023-02-01T16:41:58;11.20;99.90
41447;DHT22;27185;52.040;4.490;2023-02-01T16:44:43;11.30;99.90
41447;DHT22;27185;52.040;4.490;2023-02-01T16:47:29;11.30;99.90
41447;DHT22;27185;52.040;4.490;2023-02-01T16:50:21;11.30;99.90
41447;DHT22;27185;52.040;4.490;2023-02-01T16:53:09;11.30;99.90
41447;DHT22;27185;52.040;4.490;2023-02-01T16:55:57;11.30;99.90
41447;DHT22;27185;52.040;4.490;2023-02-01T16:58:43;11.30;99.90
41447;DHT22;27185;52.040;4.490;2023-02-01T17:01:29;11.30;99.90
41447;DHT22;27185;52.040;4.490;2023-02-01T17:04:14;11.20;99.90
41447;DHT22;27185;52.040;4.490;2023-02-01T17:07:01;11.20;99.90
41447;DHT22;27185;52.040;4.490;2023-02-01T17:09:53;11.20;99.90
41447;DHT22;27185;52.040;4.490;2023-02-01T17:12:40;11.20;99.90
41447;DHT22;27185;52.040;4.490;2023-02-01T17:15:28;11.10;99.90
41447;DHT22;27185;52.040;4.490;2023-02-01T17:18:16;11.10;99.90
41447;DHT22;27185;52.040;4.490;2023-02-01T17:21:03;11.10;99.90
41447;DHT22;27185;52.040;4.490;2023-02-01T17:23:50;11.10;99.90
41447;DHT22;27185;52.040;4.490;2023-02-01T17:26:35;11.00;99.90
41447;DHT22;27185;52.040;4.490;2023-02-01T17:29:22;11.00;99.90
41447;DHT22;27185;52.040;4.490;2023-02-01T17:32:13;10.90;99.90
41447;DHT22;27185;52.040;4.490;2023-02-01T17:35:00;10.90;99.90
41447;DHT22;27185;52.040;4.490;2023-02-01T17:37:46;10.90;99.90
41447;DHT22;27185;52.040;4.490;2023-02-01T17:40:32;10.90;99.90
41447;DHT22;27185;52.040;4.490;2023-02-01T17:43:24;10.90;99.90
41447;DHT22;27185;52.040;4.490;2023-02-01T17:46:15;10.90;99.90
41447;DHT22;27185;52.040;4.490;2023-02-01T17:49:01;10.90;99.90
41447;DHT22;27185;52.040;4.490;2023-02-01T17:51:48;10.90;99.90
41447;DHT22;27185;52.040;4.490;2023-02-01T17:54:36;11.00;99.90
41447;DHT22;27185;52.040;4.490;2023-02-01T17:57:22;11.00;99.90
41447;DHT22;27185;52.040;4.490;2023-02-01T18:00:09;10.90;99.90
41447;DHT22;27185;52.040;4.490;2023-02-01T18:02:54;11.00;99.90
41447;DHT22;27185;52.040;4.490;2023-02-01T18:05:41;11.00;99.90
41447;DHT22;27185;52.040;4.490;2023-02-01T18:08:30;11.00;99.90
41447;DHT22;27185;52.040;4.490;2023-02-01T18:11:20;11.10;99.90
41447;DHT22;27185;52.040;4.490;2023-02-01T18:14:06;11.10;99.90
41447;DHT22;27185;52.040;4.490;2023-02-01T18:16:51;11.10;99.90
41447;DHT22;27185;52.040;4.490;2023-02-01T18:19:37;11.10;99.90
41447;DHT22;27185;52.040;4.490;2023-02-01T18:22:23;11.00;99.90
41447;DHT22;27185;52.040;4.490;2023-02-01T18:25:24;11.10;99.90
41447;DHT22;27185;52.040;4.490;2023-02-01T18:28:10;11.10;99.90
41447;DHT22;27185;52.040;4.490;2023-02-01T18:30:55;11.10;99.90
41447;DHT22;27185;52.040;4.490;2023-02-01T18:33:42;11.10;99.90
41447;DHT22;27185;52.040;4.490;2023-02-01T18:36:28;11.10;99.90
41447;DHT22;27185;52.040;4.490;2023-02-01T18:39:15;11.20;99.90
41447;DHT22;27185;52.040;4.490;2023-02-01T18:42:00;11.20;99.90
41447;DHT22;27185;52.040;4.490;2023-02-01T18:44:46;11.10;99.90
41447;DHT22;27185;52.040;4.490;2023-02-01T18:47:31;11.10;99.90
41447;DHT22;27185;52.040;4.490;2023-02-01T18:50:17;11.10;99.90
41447;DHT22;27185;52.040;4.490;2023-02-01T18:53:06;11.10;99.90
41447;DHT22;27185;52.040;4.490;2023-02-01T18:55:58;11.10;99.90
41447;DHT22;27185;52.040;4.490;2023-02-01T18:58:44;11.10;99.90
41447;DHT22;27185;52.040;4.490;2023-02-01T19:01:30;11.10;99.90
41447;DHT22;27185;52.040;4.490;2023-02-01T19:04:15;11.10;99.90
41447;DHT22;27185;52.040;4.490;2023-02-01T19:07:02;11.10;99.90
41447;DHT22;27185;52.040;4.490;2023-02-01T19:09:47;11.10;99.90
41447;DHT22;27185;52.040;4.490;2023-02-01T19:12:33;11.10;99.90
41447;DHT22;27185;52.040;4.490;2023-02-01T19:15:20;11.20;99.90
41447;DHT22;27185;52.040;4.490;2023-02-01T19:18:06;11.00;99.90
41447;DHT22;27185;52.040;4.490;2023-02-01T19:20:53;11.10;99.90
41447;DHT22;27185;52.040;4.490;2023-02-01T19:23:40;11.10;99.90
41447;DHT22;27185;52.040;4.490;2023-02-01T19:26:26;11.10;99.90
41447;DHT22;27185;52.040;4.490;2023-02-01T19:29:11;11.00;99.90
41447;DHT22;27185;52.040;4.490;2023-02-01T19:31:57;10.90;99.90